createdAt,value
2024-04-14T00:00:51.018Z,62.75
2024-04-14T00:01:57.855Z,63.03
2024-04-14T00:03:04.575Z,63.32
2024-04-14T00:04:11.412Z,63.24
2024-04-14T00:05:18.257Z,63.67
2024-04-14T00:06:25.147Z,63.72
2024-04-14T00:07:31.866Z,63.35
2024-04-14T00:08:38.574Z,63.29
2024-04-14T00:09:45.332Z,63.47
2024-04-14T00:10:52.066Z,63.45
2024-04-14T00:11:58.754Z,63.28
2024-04-14T00:13:05.540Z,63.17
2024-04-14T00:14:12.337Z,63.41
2024-04-14T00:15:19.075Z,63.64
2024-04-14T00:16:25.789Z,63.72
2024-04-14T00:17:32.557Z,63.58
2024-04-14T00:18:39.790Z,64.19
2024-04-14T00:19:47.068Z,64.04
2024-04-14T00:20:54.288Z,63.92
2024-04-14T00:22:01.092Z,63.99
2024-04-14T00:23:07.813Z,64.30
2024-04-14T00:24:14.523Z,63.95
2024-04-14T00:25:21.247Z,63.57
2024-04-14T00:26:28.018Z,63.27
2024-04-14T00:27:34.765Z,63.49
2024-04-14T00:28:41.463Z,62.81
2024-04-14T00:29:48.201Z,62.80
2024-04-14T00:30:55.108Z,63.88
2024-04-14T00:32:02.071Z,63.98
2024-04-14T00:33:08.835Z,63.89
2024-04-14T00:34:15.642Z,63.40
2024-04-14T00:35:22.325Z,63.99
2024-04-14T00:36:29.110Z,63.43
2024-04-14T00:37:35.820Z,63.26
2024-04-14T00:38:42.534Z,63.12
2024-04-14T00:39:49.324Z,62.99
2024-04-14T00:40:56.036Z,62.66
2024-04-14T00:42:02.796Z,62.48
2024-04-14T00:43:09.542Z,62.25
2024-04-14T00:44:16.263Z,62.53
2024-04-14T00:45:23.025Z,62.66
2024-04-14T00:46:29.751Z,62.39
2024-04-14T00:47:36.595Z,62.67
2024-04-14T00:48:43.419Z,62.72
2024-04-14T00:49:50.162Z,62.51
2024-04-14T00:50:56.898Z,62.85
2024-04-14T00:52:03.727Z,63.14
2024-04-14T00:53:10.492Z,63.39
2024-04-14T00:54:17.214Z,63.84
2024-04-14T00:55:23.937Z,63.99
2024-04-14T00:56:30.674Z,64.35
2024-04-14T00:57:37.489Z,64.26
2024-04-14T00:58:44.252Z,64.58
2024-04-14T00:59:50.972Z,64.63
2024-04-14T01:00:57.784Z,65.12
2024-04-14T01:02:07.468Z,65.43
2024-04-14T01:03:14.427Z,65.19
2024-04-14T01:04:21.214Z,65.21
2024-04-14T01:05:27.939Z,65.60
2024-04-14T01:06:34.700Z,65.76
2024-04-14T01:07:41.413Z,65.25
2024-04-14T01:08:48.140Z,64.60
2024-04-14T01:09:54.962Z,64.22
2024-04-14T01:11:01.729Z,64.67
2024-04-14T01:12:08.442Z,65.19
2024-04-14T01:13:15.145Z,64.47
2024-04-14T01:14:21.893Z,64.12
2024-04-14T01:15:28.601Z,64.30
2024-04-14T01:16:35.316Z,64.36
2024-04-14T01:17:42.167Z,64.47
2024-04-14T01:18:49.004Z,64.08
2024-04-14T01:19:55.686Z,64.51
2024-04-14T01:21:02.413Z,65.01
2024-04-14T01:22:09.202Z,64.30
2024-04-14T01:23:15.932Z,64.03
2024-04-14T01:24:22.670Z,63.86
2024-04-14T01:25:29.396Z,64.06
2024-04-14T01:26:36.114Z,63.94
2024-04-14T01:27:42.895Z,64.07
2024-04-14T01:28:49.615Z,64.59
2024-04-14T01:29:56.326Z,65.12
2024-04-14T01:31:03.168Z,65.53
2024-04-14T01:32:10.047Z,65.52
2024-04-14T01:33:16.783Z,65.32
2024-04-14T01:34:23.494Z,64.93
2024-04-14T01:35:30.223Z,64.81
2024-04-14T01:36:36.969Z,64.47
2024-04-14T01:37:43.745Z,65.03
2024-04-14T01:38:50.453Z,65.98
2024-04-14T01:39:57.317Z,66.10
2024-04-14T01:41:04.089Z,65.92
2024-04-14T01:42:10.816Z,65.92
2024-04-14T01:43:17.564Z,65.79
2024-04-14T01:44:24.307Z,65.52
2024-04-14T01:45:31.110Z,65.40
2024-04-14T01:46:37.840Z,65.09
2024-04-14T01:47:44.673Z,65.08
2024-04-14T01:48:51.618Z,64.88
2024-04-14T01:49:58.342Z,64.77
2024-04-14T01:51:05.079Z,64.85
2024-04-14T01:52:11.795Z,64.47
2024-04-14T01:53:18.517Z,65.37
2024-04-14T01:54:25.269Z,65.45
2024-04-14T01:55:31.990Z,65.34
2024-04-14T01:56:38.745Z,64.86
2024-04-14T01:57:45.513Z,65.17
2024-04-14T01:58:52.227Z,64.68
2024-04-14T01:59:58.965Z,64.79
2024-04-14T02:01:05.756Z,64.86
2024-04-14T02:02:12.513Z,65.26
2024-04-14T02:03:19.381Z,64.64
2024-04-14T02:04:26.266Z,64.62
2024-04-14T02:05:32.977Z,64.26
2024-04-14T02:06:39.721Z,64.93
2024-04-14T02:07:46.436Z,65.93
2024-04-14T02:08:53.160Z,66.36
2024-04-14T02:09:59.924Z,66.60
2024-04-14T02:11:06.684Z,66.57
2024-04-14T02:12:13.389Z,66.35
2024-04-14T02:13:20.124Z,65.83
2024-04-14T02:14:26.857Z,65.91
2024-04-14T02:15:33.575Z,65.72
2024-04-14T02:16:40.297Z,65.06
2024-04-14T02:17:47.082Z,64.78
2024-04-14T02:18:53.879Z,65.31
2024-04-14T02:20:00.603Z,64.90
2024-04-14T02:21:07.322Z,64.97
2024-04-14T02:22:14.046Z,65.24
2024-04-14T02:23:20.801Z,65.34
2024-04-14T02:24:27.569Z,65.72
2024-04-14T02:25:34.228Z,65.08
2024-04-14T02:26:40.990Z,65.05
2024-04-14T02:27:47.715Z,65.39
2024-04-14T02:28:54.442Z,65.74
2024-04-14T02:30:01.197Z,65.43
2024-04-14T02:31:07.928Z,65.36
2024-04-14T02:32:14.713Z,65.70
2024-04-14T02:33:21.442Z,65.99
2024-04-14T02:34:28.159Z,65.63
2024-04-14T02:35:34.892Z,65.46
2024-04-14T02:36:41.633Z,65.19
2024-04-14T02:37:48.430Z,65.61
2024-04-14T02:38:55.163Z,65.91
2024-04-14T02:40:01.930Z,64.97
2024-04-14T02:41:08.652Z,64.31
2024-04-14T02:42:15.381Z,64.88
2024-04-14T02:43:22.138Z,65.40
2024-04-14T02:44:28.863Z,65.62
2024-04-14T02:45:35.632Z,65.17
2024-04-14T02:46:42.342Z,65.59
2024-04-14T02:47:49.108Z,65.15
2024-04-14T02:48:55.934Z,65.49
2024-04-14T02:50:02.746Z,64.75
2024-04-14T02:51:09.484Z,64.65
2024-04-14T02:52:16.229Z,65.12
2024-04-14T02:53:22.976Z,65.37
2024-04-14T02:54:29.719Z,65.57
2024-04-14T02:55:36.428Z,65.33
2024-04-14T02:56:43.223Z,65.54
2024-04-14T02:57:49.932Z,65.53
2024-04-14T02:58:56.659Z,65.71
2024-04-14T03:00:03.369Z,65.91
2024-04-14T03:01:10.215Z,65.68
2024-04-14T03:02:17.043Z,65.35
2024-04-14T03:03:23.813Z,65.18
2024-04-14T03:04:30.617Z,65.90
2024-04-14T03:05:37.403Z,66.29
2024-04-14T03:06:44.194Z,66.16
2024-04-14T03:07:50.987Z,65.71
2024-04-14T03:08:57.749Z,66.00
2024-04-14T03:10:04.493Z,65.81
2024-04-14T03:11:11.233Z,65.77
2024-04-14T03:12:17.916Z,65.59
2024-04-14T03:13:24.678Z,65.26
2024-04-14T03:14:31.412Z,65.09
2024-04-14T03:15:38.167Z,65.18
2024-04-14T03:16:44.984Z,65.11
2024-04-14T03:17:51.802Z,64.99
2024-04-14T03:18:58.708Z,65.60
2024-04-14T03:20:05.547Z,64.83
2024-04-14T03:21:12.264Z,64.84
2024-04-14T03:22:18.974Z,65.45
2024-04-14T03:23:25.754Z,65.25
2024-04-14T03:24:32.518Z,65.03
2024-04-14T03:25:39.258Z,65.01
2024-04-14T03:26:45.989Z,65.32
2024-04-14T03:27:52.732Z,64.91
2024-04-14T03:28:59.425Z,65.82
2024-04-14T03:30:06.161Z,65.54
2024-04-14T03:31:13.037Z,65.51
2024-04-14T03:32:19.783Z,65.57
2024-04-14T03:33:26.518Z,64.55
2024-04-14T03:34:33.242Z,64.67
2024-04-14T03:35:39.957Z,64.76
2024-04-14T03:36:46.723Z,64.84
2024-04-14T03:37:53.425Z,65.05
2024-04-14T03:39:00.172Z,65.08
2024-04-14T03:40:06.923Z,65.18
2024-04-14T03:41:13.617Z,64.95
2024-04-14T03:42:20.317Z,65.42
2024-04-14T03:43:27.060Z,65.64
2024-04-14T03:44:33.809Z,65.81
2024-04-14T03:45:40.595Z,65.87
2024-04-14T03:46:47.440Z,65.30
2024-04-14T03:47:54.238Z,65.10
2024-04-14T03:49:01.002Z,65.34
2024-04-14T03:50:07.732Z,65.03
2024-04-14T03:51:14.448Z,64.88
2024-04-14T03:52:21.177Z,64.52
2024-04-14T03:53:27.887Z,63.76
2024-04-14T03:54:34.659Z,63.70
2024-04-14T03:55:41.347Z,63.62
2024-04-14T03:56:48.070Z,63.41
2024-04-14T03:57:54.946Z,64.37
2024-04-14T03:59:01.703Z,64.19
2024-04-14T04:00:08.448Z,63.89
2024-04-14T04:01:15.248Z,64.04
2024-04-14T04:02:22.091Z,63.95
2024-04-14T04:03:28.841Z,64.31
2024-04-14T04:04:35.631Z,64.46
2024-04-14T04:05:42.332Z,64.53
2024-04-14T04:06:49.085Z,64.49
2024-04-14T04:07:55.794Z,64.71
2024-04-14T04:09:02.537Z,65.01
2024-04-14T04:10:09.251Z,64.72
2024-04-14T04:11:15.983Z,64.98
2024-04-14T04:12:22.693Z,64.40
2024-04-14T04:13:29.419Z,64.43
2024-04-14T04:14:36.187Z,64.83
2024-04-14T04:15:42.939Z,64.93
2024-04-14T04:16:49.699Z,64.98
2024-04-14T04:17:56.545Z,64.52
2024-04-14T04:19:11.280Z,64.48
2024-04-14T04:20:14.919Z,64.56
2024-04-14T04:21:21.637Z,64.71
2024-04-14T04:22:28.343Z,64.95
2024-04-14T04:23:35.075Z,64.99
2024-04-14T04:24:41.851Z,65.27
2024-04-14T04:25:48.562Z,65.57
2024-04-14T04:26:55.339Z,65.65
2024-04-14T04:28:02.051Z,65.74
2024-04-14T04:29:08.810Z,66.37
2024-04-14T04:30:15.532Z,66.72
2024-04-14T04:31:22.240Z,66.38
2024-04-14T04:32:29.066Z,66.74
2024-04-14T04:33:35.958Z,66.39
2024-04-14T04:34:42.746Z,66.33
2024-04-14T04:35:49.475Z,66.35
2024-04-14T04:36:56.310Z,66.15
2024-04-14T04:38:03.061Z,66.44
2024-04-14T04:39:09.863Z,66.69
2024-04-14T04:40:16.565Z,66.87
2024-04-14T04:41:23.282Z,67.10
2024-04-14T04:42:30.025Z,66.12
2024-04-14T04:43:36.737Z,66.24
2024-04-14T04:44:43.469Z,66.47
2024-04-14T04:45:50.223Z,66.35
2024-04-14T04:46:56.912Z,66.97
2024-04-14T04:48:03.721Z,66.98
2024-04-14T04:49:10.588Z,66.69
2024-04-14T04:50:17.371Z,66.83
2024-04-14T04:51:24.130Z,66.98
2024-04-14T04:52:30.866Z,66.64
2024-04-14T04:53:37.576Z,67.11
2024-04-14T04:54:44.349Z,66.92
2024-04-14T04:55:51.019Z,66.84
2024-04-14T04:56:57.750Z,66.53
2024-04-14T04:58:04.562Z,65.43
2024-04-14T04:59:11.290Z,66.90
2024-04-14T05:00:18.028Z,67.26
2024-04-14T05:01:24.886Z,67.24
2024-04-14T05:02:31.684Z,66.96
2024-04-14T05:03:38.666Z,66.27
2024-04-14T05:04:45.576Z,66.35
2024-04-14T05:05:52.267Z,66.84
2024-04-14T05:06:59.101Z,66.51
2024-04-14T05:08:05.848Z,66.37
2024-04-14T05:09:12.575Z,66.27
2024-04-14T05:10:19.297Z,66.44
2024-04-14T05:11:26.112Z,66.98
2024-04-14T05:12:32.916Z,67.22
2024-04-14T05:13:39.799Z,67.44
2024-04-14T05:14:46.533Z,67.40
2024-04-14T05:15:53.308Z,67.23
2024-04-14T05:17:00.020Z,67.28
2024-04-14T05:18:06.871Z,67.57
2024-04-14T05:19:13.681Z,67.62
2024-04-14T05:20:20.410Z,67.50
2024-04-14T05:21:27.187Z,67.32
2024-04-14T05:22:33.931Z,67.34
2024-04-14T05:23:40.687Z,67.18
2024-04-14T05:24:47.400Z,66.74
2024-04-14T05:25:54.112Z,67.15
2024-04-14T05:27:00.834Z,66.22
2024-04-14T05:28:07.576Z,65.08
2024-04-14T05:29:14.305Z,65.40
2024-04-14T05:30:21.036Z,64.38
2024-04-14T05:31:27.735Z,66.07
2024-04-14T05:32:35.900Z,65.19
2024-04-14T05:33:44.664Z,64.49
2024-04-14T05:34:51.384Z,65.90
2024-04-14T05:35:58.174Z,65.94
2024-04-14T05:37:04.918Z,66.35
2024-04-14T05:38:11.612Z,67.14
2024-04-14T05:39:18.351Z,67.18
2024-04-14T05:40:25.068Z,67.23
2024-04-14T05:41:31.793Z,66.94
2024-04-14T05:42:38.608Z,66.62
2024-04-14T05:43:45.351Z,66.42
2024-04-14T05:44:52.086Z,65.94
2024-04-14T05:45:58.883Z,65.63
2024-04-14T05:47:05.773Z,66.20
2024-04-14T05:48:12.570Z,66.21
2024-04-14T05:49:20.040Z,65.85
2024-04-14T05:50:26.875Z,65.90
2024-04-14T05:51:33.641Z,65.66
2024-04-14T05:52:40.330Z,65.43
2024-04-14T05:53:47.037Z,65.48
2024-04-14T05:54:53.840Z,65.63
2024-04-14T05:56:00.580Z,66.02
2024-04-14T05:57:07.274Z,65.82
2024-04-14T05:58:13.998Z,65.72
2024-04-14T05:59:20.756Z,65.70
2024-04-14T06:00:27.554Z,65.61
2024-04-14T06:01:34.456Z,65.89
2024-04-14T06:02:41.297Z,65.64
2024-04-14T06:03:48.079Z,65.54
2024-04-14T06:04:54.906Z,65.74
2024-04-14T06:06:01.608Z,65.75
2024-04-14T06:07:08.375Z,65.68
2024-04-14T06:08:15.066Z,65.55
2024-04-14T06:09:21.776Z,65.38
2024-04-14T06:10:28.547Z,65.22
2024-04-14T06:11:35.252Z,65.06
2024-04-14T06:12:41.987Z,65.55
2024-04-14T06:13:48.691Z,65.67
2024-04-14T06:14:55.405Z,65.30
2024-04-14T06:16:02.249Z,65.53
2024-04-14T06:17:09.072Z,64.22
2024-04-14T06:18:15.763Z,65.17
2024-04-14T06:19:22.465Z,65.54
2024-04-14T06:20:29.218Z,64.59
2024-04-14T06:21:35.990Z,64.74
2024-04-14T06:22:42.694Z,63.58
2024-04-14T06:23:49.408Z,63.03
2024-04-14T06:24:56.222Z,62.74
2024-04-14T06:26:03.003Z,61.51
2024-04-14T06:27:09.763Z,60.02
2024-04-14T06:28:16.531Z,61.07
2024-04-14T06:29:23.255Z,60.96
2024-04-14T06:30:30.062Z,61.24
2024-04-14T06:31:36.751Z,60.75
2024-04-14T06:32:43.567Z,59.85
2024-04-14T06:33:50.432Z,60.42
2024-04-14T06:34:57.259Z,60.57
2024-04-14T06:36:04.026Z,60.01
2024-04-14T06:37:10.744Z,60.21
2024-04-14T06:38:17.472Z,60.44
2024-04-14T06:39:24.209Z,60.31
2024-04-14T06:40:30.935Z,60.25
2024-04-14T06:41:37.672Z,59.23
2024-04-14T06:42:44.447Z,58.97
2024-04-14T06:43:51.134Z,59.17
2024-04-14T06:44:57.887Z,59.14
2024-04-14T06:46:04.693Z,58.71
2024-04-14T06:47:11.414Z,58.59
2024-04-14T06:48:18.163Z,57.32
2024-04-14T06:49:24.861Z,56.15
2024-04-14T06:50:31.597Z,56.02
2024-04-14T06:51:38.379Z,56.98
2024-04-14T06:52:45.162Z,57.13
2024-04-14T06:53:51.877Z,56.40
2024-04-14T06:54:58.668Z,56.07
2024-04-14T06:56:05.477Z,57.08
2024-04-14T06:57:12.223Z,56.80
2024-04-14T06:58:18.932Z,56.46
2024-04-14T06:59:25.637Z,56.08
2024-04-14T07:00:32.468Z,56.86
2024-04-14T07:01:39.413Z,56.67
2024-04-14T07:02:46.166Z,55.57
2024-04-14T07:03:52.925Z,55.80
2024-04-14T07:04:59.705Z,56.28
2024-04-14T07:06:06.467Z,54.94
2024-04-14T07:07:13.198Z,55.99
2024-04-14T07:08:19.933Z,56.83
2024-04-14T07:09:26.676Z,57.17
2024-04-14T07:10:33.416Z,55.92
2024-04-14T07:11:40.234Z,56.47
2024-04-14T07:12:47.104Z,55.53
2024-04-14T07:13:53.890Z,55.53
2024-04-14T07:15:00.612Z,56.05
2024-04-14T07:16:07.421Z,54.55
2024-04-14T07:17:14.269Z,55.21
2024-04-14T07:18:21.051Z,55.18
2024-04-14T07:19:27.890Z,55.00
2024-04-14T07:20:34.632Z,55.61
2024-04-14T07:21:41.430Z,55.58
2024-04-14T07:22:48.163Z,55.08
2024-04-14T07:23:54.862Z,53.31
2024-04-14T07:25:01.846Z,54.72
2024-04-14T07:26:08.690Z,54.47
2024-04-14T07:27:15.452Z,54.77
2024-04-14T07:28:22.277Z,54.10
2024-04-14T07:29:28.993Z,54.68
2024-04-14T07:30:35.744Z,54.87
2024-04-14T07:31:42.458Z,53.74
2024-04-14T07:32:49.283Z,53.59
2024-04-14T07:33:56.052Z,53.19
2024-04-14T07:35:02.784Z,53.68
2024-04-14T07:36:09.486Z,53.33
2024-04-14T07:37:16.250Z,52.26
2024-04-14T07:38:22.980Z,52.49
2024-04-14T07:39:29.721Z,51.15
2024-04-14T07:40:36.419Z,50.25
2024-04-14T07:41:43.141Z,51.21
2024-04-14T07:42:50.063Z,50.52
2024-04-14T07:43:56.933Z,50.57
2024-04-14T07:45:03.636Z,50.04
2024-04-14T07:46:10.407Z,49.41
2024-04-14T07:47:17.175Z,49.41
2024-04-14T07:48:24.004Z,49.42
2024-04-14T07:49:30.833Z,48.10
2024-04-14T07:50:37.599Z,48.78
2024-04-14T07:51:44.362Z,48.87
2024-04-14T07:52:51.123Z,48.44
2024-04-14T07:53:57.855Z,49.29
2024-04-14T07:55:04.653Z,47.84
2024-04-14T07:56:11.362Z,48.63
2024-04-14T07:57:18.092Z,49.20
2024-04-14T07:58:24.854Z,49.14
2024-04-14T07:59:31.588Z,48.72
2024-04-14T08:00:38.392Z,48.37
2024-04-14T08:01:45.179Z,47.93
2024-04-14T08:02:51.991Z,47.70
2024-04-14T08:03:58.837Z,47.94
2024-04-14T08:05:05.696Z,48.40
2024-04-14T08:06:12.418Z,47.99
2024-04-14T08:07:19.149Z,48.04
2024-04-14T08:08:25.917Z,48.00
2024-04-14T08:09:32.717Z,47.31
2024-04-14T08:10:39.466Z,47.93
2024-04-14T08:11:46.213Z,47.80
2024-04-14T08:12:52.984Z,47.91
2024-04-14T08:13:59.729Z,48.09
2024-04-14T08:15:06.438Z,47.74
2024-04-14T08:16:13.492Z,47.51
2024-04-14T08:17:20.352Z,47.42
2024-04-14T08:18:27.131Z,48.48
2024-04-14T08:19:33.871Z,48.21
2024-04-14T08:20:40.590Z,48.03
2024-04-14T08:21:47.352Z,47.75
2024-04-14T08:22:54.107Z,47.91
2024-04-14T08:24:00.870Z,47.82
2024-04-14T08:25:07.672Z,47.36
2024-04-14T08:26:14.423Z,46.11
2024-04-14T08:27:21.152Z,46.68
2024-04-14T08:28:27.926Z,46.45
2024-04-14T08:29:34.662Z,46.99
2024-04-14T08:30:41.440Z,46.27
2024-04-14T08:31:48.171Z,45.99
2024-04-14T08:32:54.939Z,46.61
2024-04-14T08:34:05.322Z,46.67
2024-04-14T08:35:13.305Z,46.41
2024-04-14T08:36:20.001Z,46.24
2024-04-14T08:37:26.769Z,46.66
2024-04-14T08:38:33.527Z,47.58
2024-04-14T08:39:40.295Z,47.13
2024-04-14T08:40:47.030Z,46.74
2024-04-14T08:41:53.770Z,46.20
2024-04-14T08:43:00.587Z,45.97
2024-04-14T08:44:07.421Z,46.33
2024-04-14T08:45:14.156Z,46.76
2024-04-14T08:46:20.983Z,47.06
2024-04-14T08:47:27.800Z,46.64
2024-04-14T08:48:34.587Z,46.37
2024-04-14T08:49:41.375Z,43.81
2024-04-14T08:50:48.122Z,44.36
2024-04-14T08:51:54.924Z,44.36
2024-04-14T08:53:01.610Z,44.64
2024-04-14T08:54:08.385Z,45.26
2024-04-14T08:55:15.111Z,44.38
2024-04-14T08:56:21.851Z,44.37
2024-04-14T08:57:28.612Z,44.70
2024-04-14T08:58:35.317Z,43.52
2024-04-14T08:59:42.073Z,43.31
2024-04-14T09:00:48.900Z,43.38
2024-04-14T09:01:55.774Z,44.09
2024-04-14T09:03:02.599Z,43.85
2024-04-14T09:04:09.422Z,43.70
2024-04-14T09:05:16.260Z,44.10
2024-04-14T09:06:23.019Z,44.25
2024-04-14T09:07:29.778Z,43.24
2024-04-14T09:08:36.514Z,43.03
2024-04-14T09:09:43.258Z,44.16
2024-04-14T09:10:50.009Z,42.54
2024-04-14T09:11:56.722Z,42.66
2024-04-14T09:13:05.011Z,41.71
2024-04-14T09:14:13.913Z,41.15
2024-04-14T09:15:20.701Z,40.37
2024-04-14T09:16:27.483Z,40.96
2024-04-14T09:17:34.345Z,41.36
2024-04-14T09:18:41.096Z,41.88
2024-04-14T09:19:47.887Z,40.41
2024-04-14T09:20:54.638Z,40.35
2024-04-14T09:22:01.424Z,39.96
2024-04-14T09:23:08.191Z,38.58
2024-04-14T09:24:14.914Z,38.86
2024-04-14T09:25:21.726Z,40.01
2024-04-14T09:26:28.481Z,40.59
2024-04-14T09:27:35.252Z,40.81
2024-04-14T09:28:41.967Z,39.88
2024-04-14T09:29:48.743Z,39.41
2024-04-14T09:30:55.487Z,40.42
2024-04-14T09:32:05.326Z,40.02
2024-04-14T09:33:12.565Z,39.61
2024-04-14T09:34:19.346Z,40.04
2024-04-14T09:35:26.049Z,40.22
2024-04-14T09:36:32.826Z,40.49
2024-04-14T09:37:39.616Z,40.58
2024-04-14T09:38:46.457Z,40.07
2024-04-14T09:39:53.290Z,39.75
2024-04-14T09:41:00.007Z,39.88
2024-04-14T09:42:06.729Z,39.61
2024-04-14T09:43:13.475Z,39.49
2024-04-14T09:44:23.278Z,39.24
2024-04-14T09:45:30.242Z,38.96
2024-04-14T09:46:36.929Z,38.61
2024-04-14T09:47:43.743Z,38.22
2024-04-14T09:48:50.508Z,38.48
2024-04-14T09:49:57.264Z,38.46
2024-04-14T09:51:03.989Z,38.97
2024-04-14T09:52:10.759Z,39.11
2024-04-14T09:53:17.449Z,37.62
2024-04-14T09:54:24.194Z,37.36
2024-04-14T09:55:30.956Z,36.63
2024-04-14T09:56:37.700Z,35.67
2024-04-14T09:57:44.485Z,36.39
2024-04-14T09:58:51.152Z,36.83
2024-04-14T09:59:57.893Z,38.39
2024-04-14T10:01:04.699Z,38.64
2024-04-14T10:02:11.472Z,37.31
2024-04-14T10:03:18.215Z,37.20
2024-04-14T10:04:25.047Z,37.63
2024-04-14T10:05:31.889Z,38.06
2024-04-14T10:06:38.714Z,37.72
2024-04-14T10:07:45.450Z,37.40
2024-04-14T10:08:52.186Z,37.62
2024-04-14T10:09:58.983Z,37.21
2024-04-14T10:11:05.833Z,36.92
2024-04-14T10:12:12.649Z,37.38
2024-04-14T10:13:19.386Z,37.06
2024-04-14T10:14:26.123Z,36.72
2024-04-14T10:15:32.902Z,37.08
2024-04-14T10:16:39.682Z,36.67
2024-04-14T10:17:46.420Z,37.54
2024-04-14T10:18:53.288Z,38.16
2024-04-14T10:20:00.135Z,37.74
2024-04-14T10:21:06.866Z,37.23
2024-04-14T10:22:13.583Z,37.82
2024-04-14T10:23:20.323Z,38.42
2024-04-14T10:24:27.066Z,37.56
2024-04-14T10:25:33.853Z,37.60
2024-04-14T10:26:40.562Z,37.28
2024-04-14T10:27:47.322Z,37.70
2024-04-14T10:28:54.061Z,37.11
2024-04-14T10:30:00.790Z,37.32
2024-04-14T10:31:07.610Z,37.75
2024-04-14T10:32:14.333Z,37.78
2024-04-14T10:33:21.149Z,37.51
2024-04-14T10:34:27.945Z,37.76
2024-04-14T10:35:34.790Z,37.78
2024-04-14T10:36:42.017Z,37.93
2024-04-14T10:37:48.904Z,37.85
2024-04-14T10:38:55.628Z,37.28
2024-04-14T10:40:02.454Z,37.06
2024-04-14T10:41:09.234Z,36.58
2024-04-14T10:42:15.948Z,36.27
2024-04-14T10:43:22.679Z,36.78
2024-04-14T10:44:29.400Z,37.65
2024-04-14T10:45:36.192Z,37.18
2024-04-14T10:46:42.951Z,37.76
2024-04-14T10:47:49.687Z,37.47
2024-04-14T10:48:56.951Z,37.55
2024-04-14T10:50:03.768Z,36.42
2024-04-14T10:51:10.505Z,36.36
2024-04-14T10:52:17.235Z,37.57
2024-04-14T10:53:23.967Z,37.63
2024-04-14T10:54:30.815Z,38.00
2024-04-14T10:55:37.638Z,38.54
2024-04-14T10:56:47.424Z,37.57
2024-04-14T10:57:55.450Z,36.12
2024-04-14T10:59:02.179Z,36.73
2024-04-14T11:00:08.912Z,35.65
2024-04-14T11:01:15.735Z,35.37
2024-04-14T11:02:22.522Z,36.13
2024-04-14T11:03:29.408Z,35.63
2024-04-14T11:04:36.326Z,36.24
2024-04-14T11:05:43.132Z,36.07
2024-04-14T11:06:49.911Z,35.28
2024-04-14T11:07:56.605Z,36.41
2024-04-14T11:09:03.338Z,35.97
2024-04-14T11:10:10.130Z,35.73
2024-04-14T11:11:16.861Z,36.27
2024-04-14T11:12:23.624Z,36.16
2024-04-14T11:13:30.326Z,36.46
2024-04-14T11:14:37.046Z,36.17
2024-04-14T11:15:43.937Z,35.84
2024-04-14T11:16:50.869Z,35.62
2024-04-14T11:17:57.680Z,34.36
2024-04-14T11:19:04.508Z,34.18
2024-04-14T11:20:11.329Z,34.13
2024-04-14T11:21:18.071Z,35.26
2024-04-14T11:22:24.789Z,34.32
2024-04-14T11:23:31.536Z,35.10
2024-04-14T11:24:38.269Z,34.32
2024-04-14T11:25:45.043Z,35.39
2024-04-14T11:26:51.778Z,36.00
2024-04-14T11:27:58.554Z,33.97
2024-04-14T11:29:05.227Z,34.00
2024-04-14T11:30:11.962Z,34.04
2024-04-14T11:31:18.757Z,33.77
2024-04-14T11:32:25.554Z,34.88
2024-04-14T11:33:32.427Z,33.79
2024-04-14T11:34:39.275Z,33.29
2024-04-14T11:35:46.038Z,33.61
2024-04-14T11:36:52.776Z,34.13
2024-04-14T11:37:59.508Z,33.92
2024-04-14T11:39:06.262Z,32.55
2024-04-14T11:40:13.047Z,32.78
2024-04-14T11:41:19.850Z,31.83
2024-04-14T11:42:26.577Z,32.98
2024-04-14T11:43:33.321Z,32.75
2024-04-14T11:44:40.080Z,32.55
2024-04-14T11:45:46.871Z,31.90
2024-04-14T11:46:53.644Z,33.30
2024-04-14T11:48:00.383Z,34.82
2024-04-14T11:49:07.187Z,33.65
2024-04-14T11:50:13.905Z,32.40
2024-04-14T11:51:20.649Z,32.92
2024-04-14T11:52:27.370Z,33.36
2024-04-14T11:53:34.110Z,32.73
2024-04-14T11:54:40.854Z,32.33
2024-04-14T11:55:47.633Z,32.57
2024-04-14T11:56:54.405Z,32.61
2024-04-14T11:58:01.222Z,33.51
2024-04-14T11:59:07.962Z,32.52
2024-04-14T12:00:14.702Z,32.23
2024-04-14T12:01:21.541Z,31.89
2024-04-14T12:02:28.296Z,32.53
2024-04-14T12:03:35.046Z,32.10
2024-04-14T12:04:41.787Z,30.80
2024-04-14T12:05:48.526Z,31.47
2024-04-14T12:06:55.274Z,32.95
2024-04-14T12:08:02.030Z,32.71
2024-04-14T12:09:08.771Z,30.04
2024-04-14T12:10:15.573Z,30.66
2024-04-14T12:11:22.392Z,30.14
2024-04-14T12:12:29.210Z,30.68
2024-04-14T12:13:35.947Z,29.64
2024-04-14T12:14:42.680Z,30.16
2024-04-14T12:15:49.437Z,30.81
2024-04-14T12:16:56.264Z,31.12
2024-04-14T12:18:03.096Z,31.21
2024-04-14T12:19:09.922Z,29.64
2024-04-14T12:20:16.662Z,30.49
2024-04-14T12:21:23.375Z,32.15
2024-04-14T12:22:30.142Z,31.64
2024-04-14T12:23:36.893Z,31.88
2024-04-14T12:24:43.662Z,31.78
2024-04-14T12:25:50.430Z,28.95
2024-04-14T12:26:57.178Z,31.05
2024-04-14T12:28:04.094Z,30.56
2024-04-14T12:29:10.903Z,30.97
2024-04-14T12:30:17.717Z,30.46
2024-04-14T12:31:24.550Z,30.69
2024-04-14T12:32:31.402Z,29.93
2024-04-14T12:33:38.199Z,30.28
2024-04-14T12:34:45.038Z,28.76
2024-04-14T12:35:51.823Z,29.46
2024-04-14T12:36:58.640Z,30.12
2024-04-14T12:38:05.396Z,29.67
2024-04-14T12:39:17.181Z,28.64
2024-04-14T12:40:23.810Z,27.94
2024-04-14T12:41:30.550Z,28.47
2024-04-14T12:42:37.395Z,28.25
2024-04-14T12:43:44.140Z,28.69
2024-04-14T12:44:50.896Z,27.94
2024-04-14T12:45:57.686Z,28.65
2024-04-14T12:47:04.506Z,28.23
2024-04-14T12:48:11.499Z,30.17
2024-04-14T12:49:18.272Z,29.44
2024-04-14T12:50:32.614Z,29.44
2024-04-14T12:51:36.668Z,29.26
2024-04-14T12:52:43.407Z,28.91
2024-04-14T12:53:50.169Z,28.12
2024-04-14T12:54:56.971Z,26.89
2024-04-14T12:56:03.708Z,27.63
2024-04-14T12:57:10.466Z,26.48
2024-04-14T12:58:17.226Z,26.78
2024-04-14T12:59:23.971Z,27.22
2024-04-14T13:00:30.729Z,27.52
2024-04-14T13:01:37.528Z,29.15
2024-04-14T13:02:44.322Z,28.58
2024-04-14T13:03:51.164Z,28.89
2024-04-14T13:04:57.997Z,29.32
2024-04-14T13:06:04.758Z,27.20
2024-04-14T13:07:11.656Z,27.30
2024-04-14T13:08:18.525Z,28.61
2024-04-14T13:09:25.245Z,28.10
2024-04-14T13:10:31.997Z,28.22
2024-04-14T13:11:38.727Z,27.74
2024-04-14T13:12:45.550Z,27.13
2024-04-14T13:13:52.265Z,26.43
2024-04-14T13:14:58.996Z,27.08
2024-04-14T13:16:05.849Z,26.66
2024-04-14T13:17:12.619Z,26.67
2024-04-14T13:18:19.399Z,26.35
2024-04-14T13:19:26.121Z,26.78
2024-04-14T13:20:32.877Z,26.44
2024-04-14T13:21:39.667Z,27.32
2024-04-14T13:22:46.383Z,27.51
2024-04-14T13:23:53.100Z,27.55
2024-04-14T13:24:59.843Z,27.79
2024-04-14T13:26:06.582Z,27.66
2024-04-14T13:27:13.344Z,27.75
2024-04-14T13:28:20.091Z,26.56
2024-04-14T13:29:28.614Z,27.31
2024-04-14T13:30:37.179Z,27.02
2024-04-14T13:31:43.918Z,26.68
2024-04-14T13:32:50.765Z,26.89
2024-04-14T13:33:57.663Z,26.53
2024-04-14T13:35:04.459Z,26.11
2024-04-14T13:36:11.173Z,26.07
2024-04-14T13:37:17.936Z,26.90
2024-04-14T13:38:24.686Z,25.68
2024-04-14T13:39:31.517Z,26.16
2024-04-14T13:40:38.299Z,25.93
2024-04-14T13:41:45.030Z,25.45
2024-04-14T13:42:51.818Z,25.44
2024-04-14T13:43:58.512Z,25.73
2024-04-14T13:45:05.256Z,25.58
2024-04-14T13:46:12.017Z,25.57
2024-04-14T13:47:18.765Z,25.18
2024-04-14T13:48:25.513Z,25.09
2024-04-14T13:49:35.634Z,25.06
2024-04-14T13:50:42.917Z,25.95
2024-04-14T13:51:49.647Z,25.48
2024-04-14T13:52:56.393Z,25.31
2024-04-14T13:54:03.135Z,23.92
2024-04-14T13:55:10.095Z,24.91
2024-04-14T13:56:16.930Z,24.08
2024-04-14T13:57:23.711Z,24.30
2024-04-14T13:58:30.439Z,23.93
2024-04-14T13:59:37.194Z,24.62
2024-04-14T14:00:43.949Z,25.44
2024-04-14T14:01:50.723Z,25.40
2024-04-14T14:02:57.507Z,24.12
2024-04-14T14:04:04.407Z,23.57
2024-04-14T14:05:11.231Z,23.81
2024-04-14T14:06:17.923Z,22.86
2024-04-14T14:07:24.714Z,23.11
2024-04-14T14:08:31.442Z,22.57
2024-04-14T14:09:38.205Z,24.05
2024-04-14T14:10:44.914Z,23.79
2024-04-14T14:11:51.644Z,24.58
2024-04-14T14:12:58.553Z,24.67
2024-04-14T14:14:05.299Z,24.03
2024-04-14T14:15:12.030Z,23.80
2024-04-14T14:16:18.960Z,24.20
2024-04-14T14:17:25.741Z,23.91
2024-04-14T14:18:32.512Z,23.99
2024-04-14T14:19:39.222Z,23.92
2024-04-14T14:20:45.943Z,24.98